This is the latest recevied weather packets stored in our database for station/object WMSA. If no packets are shown the sender has not sent any weather packets the latest 10 day(s).
| Time | Temp. | Humidity | Pressure | Rain* | Wind** | Luminosity | Snow |
|---|---|---|---|---|---|---|---|
| 1788549869 | 26.67° C | 83% | 1011 hPa | - | - | - | - |
| 1788545680 | 25.56° C | 80% | 1012.5 hPa | - | - | - | - |
| 1788542065 | 26.67° C | 88% | 1012 hPa | - | - | - | - |
| 1788538469 | 27.78° C | 83% | 1013 hPa | - | - | - | - |
| 1788537865 | 27.78° C | 83% | 1012 hPa | - | - | - | - |
| 1788535479 | 26.67° C | 79% | 1013.2 hPa | - | - | - | - |
| 1788534864 | 27.78° C | 83% | 1012 hPa | - | - | - | - |
| 1788531265 | 27.78° C | 83% | 1012 hPa | - | - | - | - |
| 1788528279 | 27.78° C | 79% | 1012.4 hPa | - | - | - | - |
| 1788524069 | 30° C | 74% | 1010 hPa | - | - | - | - |
| 1788523464 | 30.56° C | 70% | 1010 hPa | - | - | - | - |
| 1788522879 | 28.89° C | 74% | 1010.9 hPa | - | - | - | - |
| 1788520464 | 30.56° C | 70% | 1010 hPa | - | - | - | - |
| 1788516863 | 31.67° C | 70% | 1009 hPa | - | - | - | - |
| 1788513264 | 30° C | 79% | 1009 hPa | - | - | - | - |
| 1788510257 | 28.89° C | 79% | 1009 hPa | - | - | - | - |
| 1788509668 | 27.78° C | 78% | 1009 hPa | - | - | - | - |
| 1788509057 | 27.78° C | 83% | 1010 hPa | - | - | - | - |
| 1788508457 | 27.78° C | 83% | 1010 hPa | - | - | - | - |
| 1788507264 | 33.89° C | 56% | 1010 hPa | - | - | - | - |
| 1788506680 | 32.22° C | 55% | 1010.5 hPa | - | - | - | - |
| 1788506065 | 33.89° C | 56% | 1010 hPa | - | - | - | - |
| 1788505464 | 33.89° C | 56% | 1010 hPa | - | - | - | - |
| 1788502463 | 33.89° C | 56% | 1010 hPa | - | - | - | - |
| 1788498863 | 33.89° C | 56% | 1012 hPa | - | - | - | - |
* Rain since midnight (hover to see other rain measurements)
** Current wind speed in m/s (hover to see current wind gust speed)